sensor_id;sensor_type;location;lat;lon;timestamp;P1;durP1;ratioP1;P2;durP2;ratioP2
12852;SDS011;6495;51.808;7.478;2023-04-24T00:00:56;0.75;;;0.75;;
12852;SDS011;6495;51.808;7.478;2023-04-24T00:07:13;1.30;;;0.60;;
12852;SDS011;6495;51.808;7.478;2023-04-24T00:10:21;0.50;;;0.50;;
12852;SDS011;6495;51.808;7.478;2023-04-24T00:13:11;0.88;;;0.80;;
12852;SDS011;6495;51.808;7.478;2023-04-24T00:16:00;1.10;;;0.63;;
12852;SDS011;6495;51.808;7.478;2023-04-24T00:18:56;1.27;;;0.65;;
12852;SDS011;6495;51.808;7.478;2023-04-24T00:21:49;2.15;;;0.70;;
12852;SDS011;6495;51.808;7.478;2023-04-24T00:24:43;0.40;;;0.40;;
12852;SDS011;6495;51.808;7.478;2023-04-24T00:27:41;0.90;;;0.57;;
12852;SDS011;6495;51.808;7.478;2023-04-24T00:30:30;1.10;;;0.70;;
12852;SDS011;6495;51.808;7.478;2023-04-24T00:33:24;0.70;;;0.70;;
12852;SDS011;6495;51.808;7.478;2023-04-24T00:36:13;0.95;;;0.65;;
12852;SDS011;6495;51.808;7.478;2023-04-24T00:39:01;0.75;;;0.75;;
12852;SDS011;6495;51.808;7.478;2023-04-24T00:41:59;0.57;;;0.57;;
12852;SDS011;6495;51.808;7.478;2023-04-24T00:44:52;1.27;;;0.85;;
12852;SDS011;6495;51.808;7.478;2023-04-24T00:47:48;1.02;;;0.65;;
12852;SDS011;6495;51.808;7.478;2023-04-24T00:50:40;2.47;;;0.80;;
12852;SDS011;6495;51.808;7.478;2023-04-24T00:53:29;1.40;;;0.85;;
12852;SDS011;6495;51.808;7.478;2023-04-24T00:56:18;0.70;;;0.70;;
12852;SDS011;6495;51.808;7.478;2023-04-24T00:59:08;1.10;;;1.00;;
12852;SDS011;6495;51.808;7.478;2023-04-24T01:01:58;0.90;;;0.90;;
12852;SDS011;6495;51.808;7.478;2023-04-24T01:04:47;1.02;;;0.85;;
12852;SDS011;6495;51.808;7.478;2023-04-24T01:07:37;0.77;;;0.77;;
12852;SDS011;6495;51.808;7.478;2023-04-24T01:10:30;0.60;;;0.60;;
12852;SDS011;6495;51.808;7.478;2023-04-24T01:13:20;1.52;;;1.00;;
12852;SDS011;6495;51.808;7.478;2023-04-24T01:16:13;1.13;;;0.82;;
12852;SDS011;6495;51.808;7.478;2023-04-24T01:19:10;1.75;;;0.90;;
12852;SDS011;6495;51.808;7.478;2023-04-24T01:22:01;1.00;;;0.90;;
12852;SDS011;6495;51.808;7.478;2023-04-24T01:25:06;0.70;;;0.70;;
12852;SDS011;6495;51.808;7.478;2023-04-24T01:27:56;1.05;;;0.90;;
12852;SDS011;6495;51.808;7.478;2023-04-24T01:30:54;1.38;;;1.13;;
12852;SDS011;6495;51.808;7.478;2023-04-24T01:33:44;1.38;;;0.93;;
12852;SDS011;6495;51.808;7.478;2023-04-24T01:36:36;2.15;;;1.50;;
12852;SDS011;6495;51.808;7.478;2023-04-24T01:39:28;1.13;;;1.08;;
12852;SDS011;6495;51.808;7.478;2023-04-24T01:42:21;1.27;;;1.17;;
12852;SDS011;6495;51.808;7.478;2023-04-24T01:45:12;1.30;;;1.20;;
12852;SDS011;6495;51.808;7.478;2023-04-24T01:48:01;1.50;;;1.40;;
12852;SDS011;6495;51.808;7.478;2023-04-24T01:50:53;1.42;;;1.33;;
12852;SDS011;6495;51.808;7.478;2023-04-24T01:53:56;1.25;;;1.15;;
12852;SDS011;6495;51.808;7.478;2023-04-24T01:56:51;1.42;;;1.33;;
12852;SDS011;6495;51.808;7.478;2023-04-24T01:59:40;1.33;;;1.20;;
12852;SDS011;6495;51.808;7.478;2023-04-24T02:02:41;1.30;;;1.00;;
12852;SDS011;6495;51.808;7.478;2023-04-24T02:05:33;1.10;;;1.00;;
12852;SDS011;6495;51.808;7.478;2023-04-24T02:08:22;1.40;;;1.30;;
12852;SDS011;6495;51.808;7.478;2023-04-24T02:11:11;1.60;;;1.40;;
12852;SDS011;6495;51.808;7.478;2023-04-24T02:14:00;1.63;;;1.33;;
12852;SDS011;6495;51.808;7.478;2023-04-24T02:16:49;1.52;;;1.42;;
12852;SDS011;6495;51.808;7.478;2023-04-24T02:19:37;1.85;;;1.60;;
12852;SDS011;6495;51.808;7.478;2023-04-24T02:22:26;2.40;;;1.80;;
12852;SDS011;6495;51.808;7.478;2023-04-24T02:25:14;1.73;;;1.40;;
12852;SDS011;6495;51.808;7.478;2023-04-24T02:28:04;1.65;;;1.55;;
12852;SDS011;6495;51.808;7.478;2023-04-24T02:30:54;2.15;;;1.90;;
12852;SDS011;6495;51.808;7.478;2023-04-24T02:33:43;3.45;;;1.73;;
12852;SDS011;6495;51.808;7.478;2023-04-24T02:36:31;3.42;;;2.17;;
12852;SDS011;6495;51.808;7.478;2023-04-24T02:39:20;2.80;;;2.30;;
12852;SDS011;6495;51.808;7.478;2023-04-24T02:42:08;5.05;;;3.05;;
12852;SDS011;6495;51.808;7.478;2023-04-24T02:44:57;6.70;;;2.95;;
12852;SDS011;6495;51.808;7.478;2023-04-24T02:47:47;4.57;;;3.33;;
12852;SDS011;6495;51.808;7.478;2023-04-24T02:50:46;5.38;;;3.47;;
12852;SDS011;6495;51.808;7.478;2023-04-24T02:53:34;3.95;;;3.45;;
12852;SDS011;6495;51.808;7.478;2023-04-24T02:56:23;4.45;;;2.80;;
12852;SDS011;6495;51.808;7.478;2023-04-24T02:59:12;3.88;;;3.47;;
12852;SDS011;6495;51.808;7.478;2023-04-24T03:02:00;6.57;;;3.15;;
12852;SDS011;6495;51.808;7.478;2023-04-24T03:04:50;4.45;;;2.97;;
12852;SDS011;6495;51.808;7.478;2023-04-24T03:07:39;4.03;;;2.60;;
12852;SDS011;6495;51.808;7.478;2023-04-24T03:10:28;3.58;;;2.45;;
12852;SDS011;6495;51.808;7.478;2023-04-24T03:13:16;4.45;;;2.63;;
12852;SDS011;6495;51.808;7.478;2023-04-24T03:16:05;3.05;;;2.50;;
12852;SDS011;6495;51.808;7.478;2023-04-24T03:18:53;4.25;;;3.00;;
12852;SDS011;6495;51.808;7.478;2023-04-24T03:21:46;4.00;;;2.65;;
12852;SDS011;6495;51.808;7.478;2023-04-24T03:24:35;3.67;;;2.67;;
12852;SDS011;6495;51.808;7.478;2023-04-24T03:27:24;6.07;;;2.83;;
12852;SDS011;6495;51.808;7.478;2023-04-24T03:30:15;5.18;;;3.20;;
12852;SDS011;6495;51.808;7.478;2023-04-24T03:33:09;4.88;;;3.05;;
12852;SDS011;6495;51.808;7.478;2023-04-24T03:36:07;10.48;;;3.83;;
12852;SDS011;6495;51.808;7.478;2023-04-24T03:39:00;7.68;;;4.15;;
12852;SDS011;6495;51.808;7.478;2023-04-24T03:41:52;7.63;;;4.13;;
12852;SDS011;6495;51.808;7.478;2023-04-24T03:44:46;5.95;;;3.90;;
12852;SDS011;6495;51.808;7.478;2023-04-24T03:47:49;8.18;;;4.38;;
12852;SDS011;6495;51.808;7.478;2023-04-24T03:50:38;5.68;;;4.10;;
12852;SDS011;6495;51.808;7.478;2023-04-24T03:53:29;6.47;;;4.93;;
12852;SDS011;6495;51.808;7.478;2023-04-24T03:56:21;9.07;;;4.28;;
12852;SDS011;6495;51.808;7.478;2023-04-24T03:59:10;7.40;;;5.13;;
12852;SDS011;6495;51.808;7.478;2023-04-24T04:01:59;6.07;;;4.55;;
12852;SDS011;6495;51.808;7.478;2023-04-24T04:04:48;11.52;;;5.80;;
12852;SDS011;6495;51.808;7.478;2023-04-24T04:07:36;9.93;;;5.53;;
12852;SDS011;6495;51.808;7.478;2023-04-24T04:10:25;10.50;;;5.57;;
12852;SDS011;6495;51.808;7.478;2023-04-24T04:13:15;10.00;;;5.13;;
12852;SDS011;6495;51.808;7.478;2023-04-24T04:16:04;8.73;;;5.35;;
12852;SDS011;6495;51.808;7.478;2023-04-24T04:18:53;10.73;;;5.57;;
12852;SDS011;6495;51.808;7.478;2023-04-24T04:21:42;7.05;;;4.50;;
12852;SDS011;6495;51.808;7.478;2023-04-24T04:24:45;6.03;;;5.05;;
12852;SDS011;6495;51.808;7.478;2023-04-24T04:27:34;8.27;;;5.22;;
12852;SDS011;6495;51.808;7.478;2023-04-24T04:30:30;13.02;;;6.28;;
12852;SDS011;6495;51.808;7.478;2023-04-24T04:33:23;8.05;;;5.72;;
12852;SDS011;6495;51.808;7.478;2023-04-24T04:36:12;15.27;;;6.05;;
12852;SDS011;6495;51.808;7.478;2023-04-24T04:39:05;9.27;;;5.97;;
12852;SDS011;6495;51.808;7.478;2023-04-24T04:42:15;10.80;;;6.65;;
12852;SDS011;6495;51.808;7.478;2023-04-24T04:45:08;11.27;;;5.97;;
12852;SDS011;6495;51.808;7.478;2023-04-24T04:48:28;12.90;;;5.40;;
12852;SDS011;6495;51.808;7.478;2023-04-24T04:51:20;11.32;;;6.88;;
12852;SDS011;6495;51.808;7.478;2023-04-24T04:54:13;10.68;;;6.05;;
12852;SDS011;6495;51.808;7.478;2023-04-24T04:57:02;13.88;;;6.38;;
12852;SDS011;6495;51.808;7.478;2023-04-24T04:59:51;12.35;;;6.72;;
12852;SDS011;6495;51.808;7.478;2023-04-24T05:02:53;13.00;;;6.13;;
12852;SDS011;6495;51.808;7.478;2023-04-24T05:06:04;11.80;;;6.97;;
12852;SDS011;6495;51.808;7.478;2023-04-24T05:08:57;11.00;;;7.10;;
12852;SDS011;6495;51.808;7.478;2023-04-24T05:11:58;11.95;;;6.75;;
12852;SDS011;6495;51.808;7.478;2023-04-24T05:14:52;8.50;;;6.47;;
12852;SDS011;6495;51.808;7.478;2023-04-24T05:17:41;10.13;;;6.05;;
12852;SDS011;6495;51.808;7.478;2023-04-24T05:20:31;9.18;;;6.03;;
12852;SDS011;6495;51.808;7.478;2023-04-24T05:23:21;11.50;;;6.65;;
12852;SDS011;6495;51.808;7.478;2023-04-24T05:26:12;8.32;;;6.15;;
12852;SDS011;6495;51.808;7.478;2023-04-24T05:29:02;10.48;;;6.35;;
12852;SDS011;6495;51.808;7.478;2023-04-24T05:31:50;10.55;;;6.20;;
12852;SDS011;6495;51.808;7.478;2023-04-24T05:34:39;10.30;;;6.20;;
12852;SDS011;6495;51.808;7.478;2023-04-24T05:37:28;9.98;;;5.93;;
12852;SDS011;6495;51.808;7.478;2023-04-24T05:40:18;9.57;;;5.55;;
12852;SDS011;6495;51.808;7.478;2023-04-24T05:43:07;9.45;;;5.50;;
12852;SDS011;6495;51.808;7.478;2023-04-24T05:45:56;8.77;;;5.43;;
12852;SDS011;6495;51.808;7.478;2023-04-24T05:48:44;10.68;;;6.13;;
12852;SDS011;6495;51.808;7.478;2023-04-24T05:51:33;10.18;;;6.47;;
12852;SDS011;6495;51.808;7.478;2023-04-24T05:54:22;8.52;;;5.80;;
12852;SDS011;6495;51.808;7.478;2023-04-24T05:57:12;7.32;;;4.35;;
12852;SDS011;6495;51.808;7.478;2023-04-24T06:00:12;9.07;;;5.45;;
12852;SDS011;6495;51.808;7.478;2023-04-24T06:03:09;8.32;;;5.05;;
12852;SDS011;6495;51.808;7.478;2023-04-24T06:05:59;10.40;;;5.07;;
12852;SDS011;6495;51.808;7.478;2023-04-24T06:08:56;10.90;;;5.32;;
12852;SDS011;6495;51.808;7.478;2023-04-24T06:11:46;12.45;;;5.05;;
12852;SDS011;6495;51.808;7.478;2023-04-24T06:14:36;9.98;;;4.78;;
12852;SDS011;6495;51.808;7.478;2023-04-24T06:17:38;9.48;;;5.82;;
12852;SDS011;6495;51.808;7.478;2023-04-24T06:20:27;8.45;;;5.60;;
12852;SDS011;6495;51.808;7.478;2023-04-24T06:23:15;10.05;;;5.82;;
12852;SDS011;6495;51.808;7.478;2023-04-24T06:26:04;8.15;;;5.32;;
12852;SDS011;6495;51.808;7.478;2023-04-24T06:28:52;10.52;;;4.85;;
12852;SDS011;6495;51.808;7.478;2023-04-24T06:31:42;5.18;;;3.90;;
12852;SDS011;6495;51.808;7.478;2023-04-24T06:34:31;5.70;;;4.00;;
12852;SDS011;6495;51.808;7.478;2023-04-24T06:37:20;4.55;;;3.63;;
12852;SDS011;6495;51.808;7.478;2023-04-24T06:40:09;5.18;;;3.22;;
12852;SDS011;6495;51.808;7.478;2023-04-24T06:42:58;5.28;;;3.55;;
12852;SDS011;6495;51.808;7.478;2023-04-24T06:45:49;5.80;;;3.90;;
12852;SDS011;6495;51.808;7.478;2023-04-24T06:48:39;5.05;;;4.05;;
12852;SDS011;6495;51.808;7.478;2023-04-24T06:51:27;7.10;;;4.78;;
12852;SDS011;6495;51.808;7.478;2023-04-24T06:54:17;5.97;;;4.15;;
12852;SDS011;6495;51.808;7.478;2023-04-24T06:57:05;6.95;;;4.25;;
12852;SDS011;6495;51.808;7.478;2023-04-24T06:59:53;4.40;;;3.95;;
12852;SDS011;6495;51.808;7.478;2023-04-24T07:02:42;5.20;;;3.63;;
12852;SDS011;6495;51.808;7.478;2023-04-24T07:05:32;7.53;;;4.07;;
12852;SDS011;6495;51.808;7.478;2023-04-24T07:08:21;8.17;;;3.90;;
12852;SDS011;6495;51.808;7.478;2023-04-24T07:11:10;4.20;;;3.13;;
12852;SDS011;6495;51.808;7.478;2023-04-24T07:13:59;6.67;;;4.23;;
12852;SDS011;6495;51.808;7.478;2023-04-24T07:16:50;4.00;;;3.13;;
12852;SDS011;6495;51.808;7.478;2023-04-24T07:19:39;4.53;;;3.05;;
12852;SDS011;6495;51.808;7.478;2023-04-24T07:22:29;4.47;;;3.50;;
12852;SDS011;6495;51.808;7.478;2023-04-24T07:25:18;4.63;;;3.43;;
12852;SDS011;6495;51.808;7.478;2023-04-24T07:28:10;5.07;;;3.08;;
12852;SDS011;6495;51.808;7.478;2023-04-24T07:30:59;5.78;;;3.53;;
12852;SDS011;6495;51.808;7.478;2023-04-24T07:33:48;4.75;;;3.25;;
12852;SDS011;6495;51.808;7.478;2023-04-24T07:36:37;5.10;;;3.37;;
12852;SDS011;6495;51.808;7.478;2023-04-24T07:39:27;3.88;;;2.38;;
12852;SDS011;6495;51.808;7.478;2023-04-24T07:42:15;3.77;;;3.10;;
12852;SDS011;6495;51.808;7.478;2023-04-24T07:45:04;3.93;;;2.70;;
12852;SDS011;6495;51.808;7.478;2023-04-24T07:47:54;4.07;;;2.97;;
12852;SDS011;6495;51.808;7.478;2023-04-24T07:50:44;3.90;;;2.28;;
12852;SDS011;6495;51.808;7.478;2023-04-24T07:53:33;3.63;;;2.60;;
12852;SDS011;6495;51.808;7.478;2023-04-24T07:56:23;3.20;;;2.57;;
12852;SDS011;6495;51.808;7.478;2023-04-24T07:59:13;4.78;;;2.83;;
12852;SDS011;6495;51.808;7.478;2023-04-24T08:02:02;3.97;;;2.45;;
12852;SDS011;6495;51.808;7.478;2023-04-24T08:04:51;3.10;;;2.80;;
12852;SDS011;6495;51.808;7.478;2023-04-24T08:07:40;3.88;;;2.67;;
12852;SDS011;6495;51.808;7.478;2023-04-24T08:10:29;3.83;;;2.70;;
12852;SDS011;6495;51.808;7.478;2023-04-24T08:13:28;2.97;;;2.20;;
12852;SDS011;6495;51.808;7.478;2023-04-24T08:16:16;3.20;;;2.47;;
12852;SDS011;6495;51.808;7.478;2023-04-24T08:19:05;3.00;;;2.53;;
12852;SDS011;6495;51.808;7.478;2023-04-24T08:21:54;2.70;;;2.50;;
12852;SDS011;6495;51.808;7.478;2023-04-24T08:24:44;2.70;;;2.25;;
12852;SDS011;6495;51.808;7.478;2023-04-24T08:27:33;2.00;;;1.75;;
12852;SDS011;6495;51.808;7.478;2023-04-24T08:30:24;3.53;;;2.30;;
12852;SDS011;6495;51.808;7.478;2023-04-24T08:33:13;2.37;;;2.13;;
12852;SDS011;6495;51.808;7.478;2023-04-24T08:36:02;3.57;;;2.30;;
12852;SDS011;6495;51.808;7.478;2023-04-24T08:38:51;2.20;;;1.90;;
12852;SDS011;6495;51.808;7.478;2023-04-24T08:41:40;2.33;;;2.03;;
12852;SDS011;6495;51.808;7.478;2023-04-24T08:44:31;2.50;;;2.10;;
12852;SDS011;6495;51.808;7.478;2023-04-24T08:47:22;2.72;;;1.98;;
12852;SDS011;6495;51.808;7.478;2023-04-24T08:50:11;3.53;;;2.33;;
12852;SDS011;6495;51.808;7.478;2023-04-24T08:53:00;2.50;;;1.87;;
12852;SDS011;6495;51.808;7.478;2023-04-24T08:55:50;1.65;;;1.52;;
12852;SDS011;6495;51.808;7.478;2023-04-24T08:58:43;1.85;;;1.75;;
12852;SDS011;6495;51.808;7.478;2023-04-24T09:01:32;4.35;;;1.90;;
12852;SDS011;6495;51.808;7.478;2023-04-24T09:04:24;2.13;;;1.83;;
12852;SDS011;6495;51.808;7.478;2023-04-24T09:07:14;2.55;;;1.60;;
12852;SDS011;6495;51.808;7.478;2023-04-24T09:10:07;1.60;;;1.50;;
12852;SDS011;6495;51.808;7.478;2023-04-24T09:12:56;2.35;;;1.73;;
12852;SDS011;6495;51.808;7.478;2023-04-24T09:15:48;1.67;;;1.58;;
12852;SDS011;6495;51.808;7.478;2023-04-24T09:18:51;1.50;;;1.27;;
12852;SDS011;6495;51.808;7.478;2023-04-24T09:21:41;1.70;;;1.60;;
12852;SDS011;6495;51.808;7.478;2023-04-24T09:24:34;2.35;;;1.40;;
12852;SDS011;6495;51.808;7.478;2023-04-24T09:30:36;1.73;;;1.48;;
12852;SDS011;6495;51.808;7.478;2023-04-24T09:33:25;2.13;;;1.55;;
12852;SDS011;6495;51.808;7.478;2023-04-24T09:36:13;3.55;;;1.88;;
12852;SDS011;6495;51.808;7.478;2023-04-24T09:39:07;1.75;;;1.60;;
12852;SDS011;6495;51.808;7.478;2023-04-24T09:41:57;2.05;;;1.90;;
12852;SDS011;6495;51.808;7.478;2023-04-24T09:44:55;2.90;;;1.83;;
12852;SDS011;6495;51.808;7.478;2023-04-24T09:48:00;1.75;;;1.60;;
12852;SDS011;6495;51.808;7.478;2023-04-24T09:50:49;1.95;;;1.85;;
12852;SDS011;6495;51.808;7.478;2023-04-24T09:53:44;2.35;;;1.80;;
12852;SDS011;6495;51.808;7.478;2023-04-24T09:56:43;1.88;;;1.55;;
12852;SDS011;6495;51.808;7.478;2023-04-24T09:59:32;2.03;;;1.60;;
12852;SDS011;6495;51.808;7.478;2023-04-24T10:02:25;1.55;;;1.45;;
12852;SDS011;6495;51.808;7.478;2023-04-24T10:05:14;1.65;;;1.55;;
12852;SDS011;6495;51.808;7.478;2023-04-24T10:08:04;1.40;;;1.30;;
12852;SDS011;6495;51.808;7.478;2023-04-24T10:14:10;1.80;;;1.38;;
12852;SDS011;6495;51.808;7.478;2023-04-24T10:17:00;1.50;;;1.25;;
12852;SDS011;6495;51.808;7.478;2023-04-24T10:19:51;1.92;;;1.42;;
12852;SDS011;6495;51.808;7.478;2023-04-24T10:22:39;1.63;;;1.45;;
12852;SDS011;6495;51.808;7.478;2023-04-24T10:25:29;1.35;;;1.20;;
12852;SDS011;6495;51.808;7.478;2023-04-24T10:28:20;2.30;;;2.08;;
12852;SDS011;6495;51.808;7.478;2023-04-24T10:31:11;3.38;;;1.80;;
12852;SDS011;6495;51.808;7.478;2023-04-24T10:34:00;2.85;;;1.83;;
12852;SDS011;6495;51.808;7.478;2023-04-24T10:36:51;2.75;;;1.92;;
12852;SDS011;6495;51.808;7.478;2023-04-24T10:39:46;4.38;;;2.20;;
12852;SDS011;6495;51.808;7.478;2023-04-24T10:42:39;4.57;;;2.22;;
12852;SDS011;6495;51.808;7.478;2023-04-24T10:45:29;3.40;;;1.98;;
12852;SDS011;6495;51.808;7.478;2023-04-24T10:48:19;3.53;;;2.20;;
12852;SDS011;6495;51.808;7.478;2023-04-24T10:51:14;4.03;;;2.50;;
12852;SDS011;6495;51.808;7.478;2023-04-24T10:54:05;2.45;;;1.80;;
12852;SDS011;6495;51.808;7.478;2023-04-24T10:57:26;2.55;;;2.20;;
12852;SDS011;6495;51.808;7.478;2023-04-24T11:00:21;5.10;;;2.45;;
12852;SDS011;6495;51.808;7.478;2023-04-24T11:03:25;2.97;;;2.35;;
12852;SDS011;6495;51.808;7.478;2023-04-24T11:06:16;3.55;;;2.58;;
12852;SDS011;6495;51.808;7.478;2023-04-24T11:09:19;4.18;;;2.30;;
12852;SDS011;6495;51.808;7.478;2023-04-24T11:12:09;2.87;;;2.53;;
12852;SDS011;6495;51.808;7.478;2023-04-24T11:15:00;2.97;;;2.10;;
12852;SDS011;6495;51.808;7.478;2023-04-24T11:17:50;2.72;;;2.38;;
12852;SDS011;6495;51.808;7.478;2023-04-24T11:20:45;3.17;;;1.90;;
12852;SDS011;6495;51.808;7.478;2023-04-24T11:23:35;2.90;;;2.20;;
12852;SDS011;6495;51.808;7.478;2023-04-24T11:26:24;3.03;;;2.10;;
12852;SDS011;6495;51.808;7.478;2023-04-24T11:29:19;3.60;;;1.42;;
12852;SDS011;6495;51.808;7.478;2023-04-24T11:32:18;3.92;;;2.13;;
12852;SDS011;6495;51.808;7.478;2023-04-24T11:35:15;2.45;;;1.80;;
12852;SDS011;6495;51.808;7.478;2023-04-24T11:38:08;6.82;;;2.25;;
12852;SDS011;6495;51.808;7.478;2023-04-24T11:41:10;3.67;;;2.05;;
12852;SDS011;6495;51.808;7.478;2023-04-24T11:44:00;4.27;;;2.27;;
12852;SDS011;6495;51.808;7.478;2023-04-24T11:46:50;6.72;;;2.45;;
12852;SDS011;6495;51.808;7.478;2023-04-24T11:49:39;3.65;;;2.25;;
12852;SDS011;6495;51.808;7.478;2023-04-24T11:52:28;5.40;;;3.05;;
12852;SDS011;6495;51.808;7.478;2023-04-24T11:55:27;5.68;;;2.30;;
12852;SDS011;6495;51.808;7.478;2023-04-24T11:58:16;5.18;;;2.22;;
12852;SDS011;6495;51.808;7.478;2023-04-24T12:01:09;4.55;;;1.98;;
12852;SDS011;6495;51.808;7.478;2023-04-24T12:03:59;3.58;;;1.80;;
12852;SDS011;6495;51.808;7.478;2023-04-24T12:06:58;4.50;;;2.60;;
12852;SDS011;6495;51.808;7.478;2023-04-24T12:10:00;3.22;;;2.13;;
12852;SDS011;6495;51.808;7.478;2023-04-24T12:12:57;7.05;;;2.10;;
12852;SDS011;6495;51.808;7.478;2023-04-24T12:15:56;5.95;;;2.53;;
12852;SDS011;6495;51.808;7.478;2023-04-24T12:18:57;2.60;;;1.98;;
12852;SDS011;6495;51.808;7.478;2023-04-24T12:21:58;4.30;;;2.30;;
12852;SDS011;6495;51.808;7.478;2023-04-24T12:24:57;5.38;;;2.40;;
12852;SDS011;6495;51.808;7.478;2023-04-24T12:27:52;8.45;;;2.50;;
12852;SDS011;6495;51.808;7.478;2023-04-24T12:30:44;5.85;;;2.25;;
12852;SDS011;6495;51.808;7.478;2023-04-24T12:33:36;6.97;;;2.47;;
12852;SDS011;6495;51.808;7.478;2023-04-24T12:36:25;13.07;;;2.67;;
12852;SDS011;6495;51.808;7.478;2023-04-24T12:39:14;3.47;;;2.45;;
12852;SDS011;6495;51.808;7.478;2023-04-24T12:42:03;5.95;;;2.97;;
12852;SDS011;6495;51.808;7.478;2023-04-24T12:44:55;4.78;;;2.70;;
12852;SDS011;6495;51.808;7.478;2023-04-24T12:47:48;3.65;;;2.42;;
12852;SDS011;6495;51.808;7.478;2023-04-24T12:50:37;6.45;;;2.63;;
12852;SDS011;6495;51.808;7.478;2023-04-24T12:53:26;6.53;;;2.60;;
12852;SDS011;6495;51.808;7.478;2023-04-24T12:56:17;4.70;;;2.30;;
12852;SDS011;6495;51.808;7.478;2023-04-24T12:59:13;5.75;;;2.15;;
12852;SDS011;6495;51.808;7.478;2023-04-24T13:02:02;5.88;;;2.17;;
12852;SDS011;6495;51.808;7.478;2023-04-24T13:04:52;6.28;;;2.20;;
12852;SDS011;6495;51.808;7.478;2023-04-24T13:07:41;3.35;;;1.90;;
12852;SDS011;6495;51.808;7.478;2023-04-24T13:10:29;4.10;;;1.83;;
12852;SDS011;6495;51.808;7.478;2023-04-24T13:13:18;5.85;;;2.22;;
12852;SDS011;6495;51.808;7.478;2023-04-24T13:16:07;2.20;;;1.90;;
12852;SDS011;6495;51.808;7.478;2023-04-24T13:18:55;2.90;;;1.95;;
12852;SDS011;6495;51.808;7.478;2023-04-24T13:21:45;4.95;;;1.98;;
12852;SDS011;6495;51.808;7.478;2023-04-24T13:24:34;3.88;;;2.10;;
12852;SDS011;6495;51.808;7.478;2023-04-24T13:27:25;4.75;;;2.03;;
12852;SDS011;6495;51.808;7.478;2023-04-24T13:30:13;3.17;;;1.67;;
12852;SDS011;6495;51.808;7.478;2023-04-24T13:33:02;4.03;;;1.48;;
12852;SDS011;6495;51.808;7.478;2023-04-24T13:35:50;5.07;;;1.60;;
12852;SDS011;6495;51.808;7.478;2023-04-24T13:38:40;6.03;;;1.50;;
12852;SDS011;6495;51.808;7.478;2023-04-24T13:41:29;4.78;;;1.40;;
12852;SDS011;6495;51.808;7.478;2023-04-24T13:44:18;2.60;;;1.13;;
12852;SDS011;6495;51.808;7.478;2023-04-24T13:47:11;2.67;;;1.20;;
12852;SDS011;6495;51.808;7.478;2023-04-24T13:50:00;3.88;;;1.50;;
12852;SDS011;6495;51.808;7.478;2023-04-24T13:52:49;3.28;;;1.10;;
12852;SDS011;6495;51.808;7.478;2023-04-24T13:55:39;1.63;;;1.15;;
12852;SDS011;6495;51.808;7.478;2023-04-24T13:58:27;1.88;;;1.33;;
12852;SDS011;6495;51.808;7.478;2023-04-24T14:01:16;1.60;;;1.15;;
12852;SDS011;6495;51.808;7.478;2023-04-24T14:04:25;2.72;;;1.15;;
12852;SDS011;6495;51.808;7.478;2023-04-24T14:07:15;2.80;;;1.40;;
12852;SDS011;6495;51.808;7.478;2023-04-24T14:10:04;2.50;;;1.45;;
12852;SDS011;6495;51.808;7.478;2023-04-24T14:12:55;2.08;;;1.27;;
12852;SDS011;6495;51.808;7.478;2023-04-24T14:15:43;1.17;;;1.05;;
12852;SDS011;6495;51.808;7.478;2023-04-24T14:18:32;2.00;;;1.30;;
12852;SDS011;6495;51.808;7.478;2023-04-24T14:21:20;1.63;;;1.10;;
12852;SDS011;6495;51.808;7.478;2023-04-24T14:31:45;6.95;;;1.30;;
12852;SDS011;6495;51.808;7.478;2023-04-24T14:36:07;1.33;;;1.20;;
12852;SDS011;6495;51.808;7.478;2023-04-24T14:38:56;2.75;;;1.48;;
12852;SDS011;6495;51.808;7.478;2023-04-24T14:41:45;1.70;;;1.50;;
12852;SDS011;6495;51.808;7.478;2023-04-24T14:44:35;4.75;;;3.00;;
12852;SDS011;6495;51.808;7.478;2023-04-24T14:47:24;4.18;;;2.55;;
12852;SDS011;6495;51.808;7.478;2023-04-24T14:50:13;1.63;;;1.52;;
12852;SDS011;6495;51.808;7.478;2023-04-24T14:53:01;1.98;;;1.52;;
12852;SDS011;6495;51.808;7.478;2023-04-24T14:55:50;1.45;;;1.35;;
12852;SDS011;6495;51.808;7.478;2023-04-24T14:58:39;6.45;;;1.38;;
12852;SDS011;6495;51.808;7.478;2023-04-24T15:01:29;2.10;;;1.48;;
12852;SDS011;6495;51.808;7.478;2023-04-24T15:04:18;2.70;;;1.40;;
12852;SDS011;6495;51.808;7.478;2023-04-24T15:07:10;1.20;;;1.00;;
12852;SDS011;6495;51.808;7.478;2023-04-24T15:09:58;2.38;;;1.23;;
12852;SDS011;6495;51.808;7.478;2023-04-24T15:12:47;3.45;;;1.33;;
12852;SDS011;6495;51.808;7.478;2023-04-24T15:15:36;2.58;;;1.35;;
12852;SDS011;6495;51.808;7.478;2023-04-24T15:18:34;1.88;;;1.50;;
12852;SDS011;6495;51.808;7.478;2023-04-24T15:21:22;2.40;;;1.60;;
12852;SDS011;6495;51.808;7.478;2023-04-24T15:24:11;2.20;;;1.10;;
12852;SDS011;6495;51.808;7.478;2023-04-24T15:27:00;2.15;;;1.38;;
12852;SDS011;6495;51.808;7.478;2023-04-24T15:29:49;2.78;;;1.10;;
12852;SDS011;6495;51.808;7.478;2023-04-24T15:32:40;1.20;;;1.10;;
12852;SDS011;6495;51.808;7.478;2023-04-24T15:35:30;2.95;;;1.25;;
12852;SDS011;6495;51.808;7.478;2023-04-24T15:38:19;0.95;;;0.93;;
12852;SDS011;6495;51.808;7.478;2023-04-24T15:41:07;1.25;;;1.15;;
12852;SDS011;6495;51.808;7.478;2023-04-24T15:43:56;3.60;;;1.70;;
12852;SDS011;6495;51.808;7.478;2023-04-24T15:46:45;1.17;;;1.08;;
12852;SDS011;6495;51.808;7.478;2023-04-24T15:49:33;1.27;;;1.10;;
12852;SDS011;6495;51.808;7.478;2023-04-24T15:52:23;2.83;;;1.13;;
12852;SDS011;6495;51.808;7.478;2023-04-24T15:55:13;6.15;;;1.38;;
12852;SDS011;6495;51.808;7.478;2023-04-24T15:58:02;2.85;;;1.10;;
12852;SDS011;6495;51.808;7.478;2023-04-24T16:00:51;2.05;;;1.20;;
12852;SDS011;6495;51.808;7.478;2023-04-24T16:03:40;3.20;;;1.42;;
12852;SDS011;6495;51.808;7.478;2023-04-24T16:06:35;1.48;;;1.15;;
12852;SDS011;6495;51.808;7.478;2023-04-24T16:09:25;2.97;;;1.30;;
12852;SDS011;6495;51.808;7.478;2023-04-24T16:12:14;3.78;;;1.23;;
12852;SDS011;6495;51.808;7.478;2023-04-24T16:15:04;1.70;;;1.20;;
12852;SDS011;6495;51.808;7.478;2023-04-24T16:21:41;4.90;;;1.30;;
12852;SDS011;6495;51.808;7.478;2023-04-24T16:24:37;3.65;;;1.30;;
12852;SDS011;6495;51.808;7.478;2023-04-24T16:27:26;3.28;;;1.30;;
12852;SDS011;6495;51.808;7.478;2023-04-24T16:30:14;4.97;;;1.30;;
12852;SDS011;6495;51.808;7.478;2023-04-24T16:33:04;3.10;;;1.23;;
12852;SDS011;6495;51.808;7.478;2023-04-24T16:35:55;1.45;;;1.33;;
12852;SDS011;6495;51.808;7.478;2023-04-24T16:38:44;2.30;;;1.40;;
12852;SDS011;6495;51.808;7.478;2023-04-24T16:41:34;2.15;;;1.20;;
12852;SDS011;6495;51.808;7.478;2023-04-24T16:44:23;5.53;;;1.58;;
12852;SDS011;6495;51.808;7.478;2023-04-24T16:47:11;2.92;;;1.70;;
12852;SDS011;6495;51.808;7.478;2023-04-24T16:50:01;2.10;;;1.33;;
12852;SDS011;6495;51.808;7.478;2023-04-24T16:52:52;4.43;;;1.77;;
12852;SDS011;6495;51.808;7.478;2023-04-24T16:55:40;4.07;;;1.27;;
12852;SDS011;6495;51.808;7.478;2023-04-24T16:58:40;3.55;;;1.65;;
12852;SDS011;6495;51.808;7.478;2023-04-24T17:01:29;5.30;;;1.83;;
12852;SDS011;6495;51.808;7.478;2023-04-24T17:04:17;2.38;;;1.48;;
12852;SDS011;6495;51.808;7.478;2023-04-24T17:07:06;2.17;;;1.60;;
12852;SDS011;6495;51.808;7.478;2023-04-24T17:09:55;4.25;;;1.70;;
12852;SDS011;6495;51.808;7.478;2023-04-24T17:12:43;2.88;;;1.85;;
12852;SDS011;6495;51.808;7.478;2023-04-24T17:15:33;2.83;;;1.90;;
12852;SDS011;6495;51.808;7.478;2023-04-24T17:18:22;3.33;;;1.80;;
12852;SDS011;6495;51.808;7.478;2023-04-24T17:21:11;3.72;;;1.42;;
12852;SDS011;6495;51.808;7.478;2023-04-24T17:24:07;3.90;;;1.55;;
12852;SDS011;6495;51.808;7.478;2023-04-24T17:26:55;5.70;;;1.63;;
12852;SDS011;6495;51.808;7.478;2023-04-24T17:29:59;3.38;;;1.67;;
12852;SDS011;6495;51.808;7.478;2023-04-24T17:32:50;3.33;;;1.60;;
12852;SDS011;6495;51.808;7.478;2023-04-24T17:35:39;3.95;;;1.80;;
12852;SDS011;6495;51.808;7.478;2023-04-24T17:38:28;1.73;;;1.55;;
12852;SDS011;6495;51.808;7.478;2023-04-24T17:41:17;4.47;;;1.98;;
12852;SDS011;6495;51.808;7.478;2023-04-24T17:44:06;4.70;;;1.70;;
12852;SDS011;6495;51.808;7.478;2023-04-24T17:46:55;6.05;;;1.33;;
12852;SDS011;6495;51.808;7.478;2023-04-24T17:49:45;5.50;;;1.80;;